Hanover, Kansas
Current Conditions -  °F | °C
As of 2:15 AM on Monday 26 Jan 2015 (Local Time) from KMYZ Reporting Station
Overcast Overcast  
Wind Chill: 26°   Ceiling: 9000
Heat Index: 32°   Visibility: 10mi
Dew Point: 30°   Wind: 7mph
Humidity: 93%   Direction: 220°SW
Pressure: 30.08"   Gusts: NA
Location:  39.89°N, 96.88°W
Report Text: KMYZ 260815Z AUTO 22006KT 10SM OVC090 00/M01 A3008 RMK AO2
Loading
Personal Weather Stations






























Interactive Weather Map New forecast layout! Learn more

10-Day Weather Forecast

Advertisements
Track Severe Weather on mobile